createdAt,value
2018-06-08T00:00:58.382Z,13.75
2018-06-08T00:02:00.614Z,13.80
2018-06-08T00:03:02.886Z,12.23
2018-06-08T00:04:05.125Z,14.30
2018-06-08T00:05:07.356Z,13.28
2018-06-08T00:06:09.578Z,13.20
2018-06-08T00:07:11.814Z,14.65
2018-06-08T00:08:14.035Z,15.25
2018-06-08T00:09:16.286Z,11.88
2018-06-08T00:10:18.522Z,13.08
2018-06-08T00:11:20.739Z,17.80
2018-06-08T00:12:22.957Z,9.78
2018-06-08T00:13:25.727Z,11.40
2018-06-08T00:14:27.937Z,13.28
2018-06-08T00:15:30.174Z,16.07
2018-06-08T00:16:32.390Z,14.65
2018-06-08T00:17:34.605Z,13.93
2018-06-08T00:18:42.810Z,13.38
2018-06-08T00:19:45.044Z,16.82
2018-06-08T00:20:47.266Z,14.25
2018-06-08T00:21:49.506Z,12.95
2018-06-08T00:22:51.735Z,14.33
2018-06-08T00:23:53.970Z,14.03
2018-06-08T00:24:56.183Z,16.73
2018-06-08T00:25:58.462Z,16.27
2018-06-08T00:27:00.682Z,12.15
2018-06-08T00:28:02.916Z,14.40
2018-06-08T00:29:05.153Z,14.58
2018-06-08T00:30:07.407Z,12.47
2018-06-08T00:31:09.625Z,11.28
2018-06-08T00:32:11.869Z,14.35
2018-06-08T00:33:14.129Z,14.00
2018-06-08T00:34:16.330Z,11.97
2018-06-08T00:35:18.542Z,15.78
2018-06-08T00:36:20.813Z,13.15
2018-06-08T00:37:22.990Z,12.40
2018-06-08T00:38:25.210Z,12.20
2018-06-08T00:39:27.435Z,15.88
2018-06-08T00:40:29.686Z,11.10
2018-06-08T00:41:31.912Z,13.10
2018-06-08T00:42:34.200Z,14.50
2018-06-08T00:43:36.430Z,12.70
2018-06-08T00:44:38.670Z,13.72
2018-06-08T00:45:40.874Z,14.98
2018-06-08T00:46:43.099Z,11.40
2018-06-08T00:47:45.338Z,13.98
2018-06-08T00:48:47.603Z,14.80
2018-06-08T00:49:49.832Z,9.98
2018-06-08T00:50:52.064Z,13.93
2018-06-08T00:51:54.278Z,13.98
2018-06-08T00:52:56.503Z,10.90
2018-06-08T00:53:58.818Z,14.90
2018-06-08T00:55:01.036Z,13.78
2018-06-08T00:56:03.257Z,9.93
2018-06-08T00:57:06.767Z,12.95
2018-06-08T00:58:08.972Z,13.15
2018-06-08T00:59:11.211Z,8.88
2018-06-08T01:00:13.474Z,12.03
2018-06-08T01:01:15.702Z,12.70
2018-06-08T01:02:17.938Z,11.18
2018-06-08T01:03:20.162Z,11.83
2018-06-08T01:05:31.316Z,13.48
2018-06-08T01:06:33.608Z,13.98
2018-06-08T01:07:35.821Z,11.95
2018-06-08T01:08:38.050Z,13.30
2018-06-08T01:09:40.285Z,10.13
2018-06-08T01:10:42.512Z,15.43
2018-06-08T01:11:44.738Z,13.83
2018-06-08T01:12:46.973Z,13.08
2018-06-08T01:13:49.189Z,13.35
2018-06-08T01:14:51.429Z,13.10
2018-06-08T01:15:53.664Z,12.90
2018-06-08T01:16:55.944Z,15.32
2018-06-08T01:17:58.218Z,18.07
2018-06-08T01:19:00.436Z,13.40
2018-06-08T01:20:02.714Z,15.15
2018-06-08T01:21:04.935Z,13.83
2018-06-08T01:22:07.154Z,14.10
2018-06-08T01:23:09.606Z,18.07
2018-06-08T01:24:11.843Z,13.03
2018-06-08T01:25:14.090Z,13.22
2018-06-08T01:26:16.318Z,15.03
2018-06-08T01:27:18.538Z,11.85
2018-06-08T01:28:20.774Z,12.13
2018-06-08T01:29:22.998Z,14.90
2018-06-08T01:30:25.279Z,13.13
2018-06-08T01:31:27.547Z,11.57
2018-06-08T01:32:29.789Z,14.10
2018-06-08T01:33:32.009Z,10.90
2018-06-08T01:34:34.248Z,13.98
2018-06-08T01:35:36.446Z,13.75
2018-06-08T01:36:38.697Z,9.40
2018-06-08T01:37:40.970Z,12.03
2018-06-08T01:39:52.126Z,12.45
2018-06-08T01:40:54.381Z,12.00
2018-06-08T01:41:56.605Z,12.05
2018-06-08T01:42:58.861Z,13.72
2018-06-08T01:44:01.083Z,12.30
2018-06-08T01:45:03.481Z,12.13
2018-06-08T01:46:05.697Z,14.25
2018-06-08T01:47:07.925Z,13.05
2018-06-08T01:48:10.166Z,12.03
2018-06-08T01:49:12.373Z,14.58
2018-06-08T01:50:14.614Z,12.68
2018-06-08T01:51:16.817Z,14.38
2018-06-08T01:52:19.061Z,13.80
2018-06-08T01:53:21.493Z,10.75
2018-06-08T01:54:23.776Z,13.75
2018-06-08T01:55:26.022Z,15.13
2018-06-08T01:56:28.542Z,13.15
2018-06-08T01:57:30.770Z,14.53
2018-06-08T01:58:32.974Z,11.73
2018-06-08T01:59:35.220Z,15.35
2018-06-08T02:00:37.479Z,12.63
2018-06-08T02:01:39.712Z,12.35
2018-06-08T02:02:41.923Z,12.05
2018-06-08T02:03:44.155Z,15.83
2018-06-08T02:04:46.441Z,11.65
2018-06-08T02:05:48.739Z,13.38
2018-06-08T02:06:50.966Z,13.18
2018-06-08T02:07:53.187Z,14.28
2018-06-08T02:08:55.411Z,14.28
2018-06-08T02:09:57.701Z,13.65
2018-06-08T02:10:59.901Z,14.75
2018-06-08T02:12:02.118Z,14.85
2018-06-08T02:13:04.355Z,13.83
2018-06-08T02:14:06.622Z,9.93
2018-06-08T02:15:08.877Z,16.65
2018-06-08T02:16:11.134Z,13.18
2018-06-08T02:17:13.386Z,16.93
2018-06-08T02:18:15.640Z,18.85
2018-06-08T02:19:20.462Z,14.53
2018-06-08T02:20:22.708Z,13.95
2018-06-08T02:21:24.959Z,18.65
2018-06-08T02:22:27.200Z,15.68
2018-06-08T02:23:30.086Z,13.45
2018-06-08T02:24:32.314Z,19.00
2018-06-08T02:25:34.537Z,17.80
2018-06-08T02:26:36.761Z,18.67
2018-06-08T02:27:39.013Z,19.10
2018-06-08T02:28:41.237Z,17.98
2018-06-08T02:29:43.458Z,18.75
2018-06-08T02:30:45.691Z,20.23
2018-06-08T02:31:47.910Z,18.23
2018-06-08T02:32:50.121Z,24.75
2018-06-08T02:33:52.329Z,25.55
2018-06-08T02:34:54.554Z,21.37
2018-06-08T02:35:56.761Z,21.00
2018-06-08T02:36:58.995Z,24.87
2018-06-08T02:38:01.223Z,22.85
2018-06-08T02:39:06.214Z,25.70
2018-06-08T02:40:08.458Z,21.70
2018-06-08T02:41:10.665Z,21.17
2018-06-08T02:42:12.898Z,25.62
2018-06-08T02:43:15.105Z,22.25
2018-06-08T02:44:17.326Z,21.25
2018-06-08T02:45:19.540Z,21.52
2018-06-08T02:46:21.802Z,24.15
2018-06-08T02:47:24.024Z,25.05
2018-06-08T02:48:26.259Z,21.10
2018-06-08T02:49:28.474Z,25.65
2018-06-08T02:50:30.719Z,24.65
2018-06-08T02:51:32.987Z,20.30
2018-06-08T02:52:35.259Z,26.55
2018-06-08T02:53:37.486Z,24.95
2018-06-08T02:54:39.710Z,25.23
2018-06-08T02:55:41.975Z,28.02
2018-06-08T02:56:44.972Z,25.32
2018-06-08T02:57:47.195Z,30.50
2018-06-08T02:58:49.416Z,28.75
2018-06-08T02:59:51.628Z,23.50
2018-06-08T03:00:53.832Z,22.87
2018-06-08T03:01:56.081Z,23.27
2018-06-08T03:02:58.301Z,25.50
2018-06-08T03:04:00.494Z,24.00
2018-06-08T03:05:02.769Z,23.40
2018-06-08T03:06:04.994Z,26.95
2018-06-08T03:07:07.207Z,27.10
2018-06-08T03:08:09.465Z,24.23
2018-06-08T03:09:11.710Z,24.43
2018-06-08T03:10:13.929Z,27.75
2018-06-08T03:11:16.302Z,27.10
2018-06-08T03:12:18.542Z,24.55
2018-06-08T03:13:20.745Z,23.98
2018-06-08T03:14:22.998Z,23.95
2018-06-08T03:15:25.214Z,29.02
2018-06-08T03:16:27.530Z,28.50
2018-06-08T03:17:29.753Z,20.55
2018-06-08T03:18:31.997Z,23.47
2018-06-08T03:19:34.207Z,23.95
2018-06-08T03:20:36.455Z,26.33
2018-06-08T03:21:38.680Z,21.97
2018-06-08T03:22:40.879Z,25.68
2018-06-08T03:23:43.547Z,22.45
2018-06-08T03:24:45.763Z,22.95
2018-06-08T03:25:47.964Z,19.15
2018-06-08T03:26:50.190Z,26.12
2018-06-08T03:27:52.406Z,23.62
2018-06-08T03:28:54.621Z,22.35
2018-06-08T03:29:56.861Z,23.85
2018-06-08T03:30:59.125Z,25.02
2018-06-08T03:32:01.338Z,22.58
2018-06-08T03:33:03.617Z,21.57
2018-06-08T03:34:05.826Z,24.98
2018-06-08T03:35:08.059Z,20.00
2018-06-08T03:36:10.257Z,23.10
2018-06-08T03:37:12.534Z,22.20
2018-06-08T03:38:14.753Z,19.87
2018-06-08T03:39:16.967Z,23.42
2018-06-08T03:40:19.174Z,23.05
2018-06-08T03:41:21.413Z,19.57
2018-06-08T03:42:23.630Z,20.23
2018-06-08T03:43:25.844Z,21.45
2018-06-08T03:44:28.070Z,14.30
2018-06-08T03:45:30.291Z,21.68
2018-06-08T03:46:32.506Z,20.40
2018-06-08T03:47:34.722Z,14.13
2018-06-08T03:48:36.982Z,18.80
2018-06-08T03:49:39.213Z,17.57
2018-06-08T03:50:41.425Z,12.63
2018-06-08T03:51:43.658Z,14.98
2018-06-08T03:52:45.909Z,17.02
2018-06-08T03:53:48.120Z,12.65
2018-06-08T03:54:50.332Z,14.50
2018-06-08T03:55:52.545Z,14.95
2018-06-08T03:56:54.763Z,13.78
2018-06-08T03:57:56.985Z,16.65
2018-06-08T03:58:59.237Z,16.60
2018-06-08T04:00:01.485Z,12.13
2018-06-08T04:01:03.715Z,14.15
2018-06-08T04:02:05.954Z,13.70
2018-06-08T04:03:08.202Z,12.30
2018-06-08T04:04:10.411Z,15.00
2018-06-08T04:05:12.638Z,16.27
2018-06-08T04:06:21.589Z,14.07
2018-06-08T04:07:23.807Z,10.85
2018-06-08T04:08:26.046Z,12.10
2018-06-08T04:09:28.267Z,16.90
2018-06-08T04:10:30.490Z,11.57
2018-06-08T04:11:32.710Z,13.75
2018-06-08T04:12:34.930Z,15.95
2018-06-08T04:13:37.154Z,15.15
2018-06-08T04:14:39.370Z,15.23
2018-06-08T04:15:41.571Z,17.50
2018-06-08T04:16:43.823Z,15.18
2018-06-08T04:17:46.061Z,14.83
2018-06-08T04:18:48.333Z,16.93
2018-06-08T04:19:50.620Z,11.85
2018-06-08T04:20:52.850Z,15.65
2018-06-08T04:21:55.079Z,13.62
2018-06-08T04:22:57.329Z,9.98
2018-06-08T04:23:59.552Z,15.20
2018-06-08T04:25:01.814Z,15.63
2018-06-08T04:26:04.062Z,12.70
2018-06-08T04:27:06.294Z,14.47
2018-06-08T04:28:08.494Z,13.58
2018-06-08T04:29:10.737Z,14.45
2018-06-08T04:30:12.948Z,16.82
2018-06-08T04:31:15.159Z,13.65
2018-06-08T04:32:17.411Z,14.05
2018-06-08T04:33:24.056Z,14.43
2018-06-08T04:34:28.562Z,12.47
2018-06-08T04:35:31.185Z,14.50
2018-06-08T04:36:33.382Z,14.30
2018-06-08T04:37:35.591Z,16.27
2018-06-08T04:38:37.991Z,14.43
2018-06-08T04:39:40.212Z,17.73
2018-06-08T04:40:42.433Z,15.48
2018-06-08T04:41:44.878Z,15.80
2018-06-08T04:42:53.857Z,14.30
2018-06-08T04:43:56.086Z,16.50
2018-06-08T04:44:58.297Z,16.75
2018-06-08T04:46:00.518Z,14.43
2018-06-08T04:48:11.641Z,14.78
2018-06-08T04:49:13.875Z,15.38
2018-06-08T04:50:16.162Z,18.10
2018-06-08T04:51:18.807Z,15.65
2018-06-08T04:52:21.036Z,14.33
2018-06-08T04:53:23.283Z,15.00
2018-06-08T04:54:25.484Z,16.30
2018-06-08T04:55:27.749Z,14.60
2018-06-08T04:56:29.962Z,15.18
2018-06-08T04:57:32.209Z,17.17
2018-06-08T04:58:34.438Z,13.62
2018-06-08T04:59:36.634Z,17.52
2018-06-08T05:00:38.874Z,16.27
2018-06-08T05:01:41.117Z,16.35
2018-06-08T05:02:43.330Z,16.37
2018-06-08T05:03:45.580Z,18.92
2018-06-08T05:04:47.794Z,17.00
2018-06-08T05:05:50.069Z,20.02
2018-06-08T05:06:52.311Z,19.12
2018-06-08T05:07:54.528Z,16.87
2018-06-08T05:08:56.843Z,20.15
2018-06-08T05:09:59.053Z,19.17
2018-06-08T05:11:01.314Z,19.52
2018-06-08T05:12:03.631Z,17.90
2018-06-08T05:13:05.878Z,17.60
2018-06-08T05:14:08.099Z,16.52
2018-06-08T05:15:10.316Z,18.12
2018-06-08T05:16:12.558Z,19.05
2018-06-08T05:17:14.770Z,17.82
2018-06-08T05:18:16.998Z,18.35
2018-06-08T05:19:19.237Z,19.40
2018-06-08T05:20:21.446Z,15.88
2018-06-08T05:21:23.710Z,19.75
2018-06-08T05:22:26.886Z,18.60
2018-06-08T05:23:29.117Z,18.77
2018-06-08T05:24:31.338Z,19.30
2018-06-08T05:25:33.549Z,19.92
2018-06-08T05:26:35.810Z,18.80
2018-06-08T05:27:38.052Z,17.65
2018-06-08T05:28:40.277Z,18.60
2018-06-08T05:29:42.502Z,18.80
2018-06-08T05:30:44.725Z,16.37
2018-06-08T05:31:46.946Z,21.30
2018-06-08T05:32:49.142Z,19.50
2018-06-08T05:33:51.370Z,15.13
2018-06-08T05:34:53.643Z,17.80
2018-06-08T05:35:55.904Z,21.80
2018-06-08T05:36:58.146Z,22.90
2018-06-08T05:38:00.379Z,23.83
2018-06-08T05:39:04.934Z,15.60
2018-06-08T05:40:07.193Z,20.12
2018-06-08T05:41:09.405Z,17.98
2018-06-08T05:42:11.642Z,22.95
2018-06-08T05:43:13.849Z,23.18
2018-06-08T05:44:16.075Z,17.90
2018-06-08T05:45:18.300Z,21.25
2018-06-08T05:46:20.529Z,21.05
2018-06-08T05:47:22.774Z,18.27
2018-06-08T05:48:25.069Z,19.80
2018-06-08T05:49:27.277Z,18.37
2018-06-08T05:50:29.525Z,19.62
2018-06-08T05:51:31.787Z,21.82
2018-06-08T05:52:34.035Z,22.67
2018-06-08T05:53:36.256Z,23.90
2018-06-08T05:54:38.602Z,24.75
2018-06-08T05:55:40.864Z,22.50
2018-06-08T05:56:43.103Z,24.18
2018-06-08T05:57:45.343Z,25.68
2018-06-08T05:58:47.549Z,24.02
2018-06-08T05:59:49.847Z,23.67
2018-06-08T06:00:52.152Z,19.30
2018-06-08T06:01:54.426Z,17.37
2018-06-08T06:02:56.682Z,19.85
2018-06-08T06:03:58.930Z,18.90
2018-06-08T06:05:01.207Z,16.70
2018-06-08T06:06:03.515Z,21.15
2018-06-08T06:07:05.797Z,19.30
2018-06-08T06:08:08.047Z,17.35
2018-06-08T06:09:10.298Z,21.07
2018-06-08T06:10:12.580Z,15.98
2018-06-08T06:11:14.930Z,19.23
2018-06-08T06:12:17.164Z,19.95
2018-06-08T06:13:19.418Z,15.15
2018-06-08T06:14:21.713Z,18.92
2018-06-08T06:15:23.942Z,20.95
2018-06-08T06:16:26.223Z,17.35
2018-06-08T06:17:28.464Z,21.52
2018-06-08T06:18:30.764Z,15.05
2018-06-08T06:19:32.984Z,18.05
2018-06-08T06:20:35.214Z,20.80
2018-06-08T06:21:37.436Z,17.17
2018-06-08T06:22:39.688Z,19.87
2018-06-08T06:23:41.912Z,18.52
2018-06-08T06:24:44.167Z,15.95
2018-06-08T06:25:46.604Z,21.55
2018-06-08T06:26:48.840Z,22.60
2018-06-08T06:27:51.074Z,20.92
2018-06-08T06:28:53.363Z,22.07
2018-06-08T06:29:55.621Z,21.80
2018-06-08T06:30:57.897Z,21.27
2018-06-08T06:32:00.137Z,22.77
2018-06-08T06:33:02.397Z,22.70
2018-06-08T06:34:04.658Z,22.32
2018-06-08T06:35:06.922Z,23.85
2018-06-08T06:36:09.180Z,19.62
2018-06-08T06:37:11.430Z,22.48
2018-06-08T06:38:13.651Z,17.87
2018-06-08T06:39:15.941Z,20.43
2018-06-08T06:40:18.236Z,21.82
2018-06-08T06:42:46.087Z,18.05
2018-06-08T06:43:48.322Z,18.07
2018-06-08T06:44:50.608Z,17.00
2018-06-08T06:45:52.846Z,22.45
2018-06-08T06:46:55.119Z,20.45
2018-06-08T06:47:57.450Z,15.53
2018-06-08T06:48:59.690Z,19.75
2018-06-08T06:50:02.010Z,16.97
2018-06-08T06:51:04.256Z,16.02
2018-06-08T06:52:06.604Z,18.87
2018-06-08T06:53:08.862Z,17.27
2018-06-08T06:54:11.122Z,18.82
2018-06-08T06:55:13.359Z,23.20
2018-06-08T06:56:15.604Z,16.82
2018-06-08T06:57:17.868Z,18.05
2018-06-08T06:58:20.124Z,19.90
2018-06-08T06:59:22.368Z,17.90
2018-06-08T07:00:24.597Z,21.93
2018-06-08T07:01:26.830Z,20.45
2018-06-08T07:02:29.072Z,16.75
2018-06-08T07:03:31.347Z,22.10
2018-06-08T07:04:34.091Z,17.40
2018-06-08T07:05:36.350Z,17.20
2018-06-08T07:06:38.623Z,17.95
2018-06-08T07:07:40.893Z,17.27
2018-06-08T07:08:43.116Z,18.02
2018-06-08T07:09:45.338Z,15.32
2018-06-08T07:10:47.580Z,14.87
2018-06-08T07:11:49.844Z,18.92
2018-06-08T07:12:52.071Z,16.07
2018-06-08T07:13:54.288Z,18.50
2018-06-08T07:14:56.585Z,17.10
2018-06-08T07:15:58.859Z,15.38
2018-06-08T07:17:01.114Z,17.20
2018-06-08T07:18:03.376Z,16.60
2018-06-08T07:19:05.630Z,15.03
2018-06-08T07:20:07.930Z,15.40
2018-06-08T07:21:10.186Z,15.20
2018-06-08T07:22:12.470Z,15.28
2018-06-08T07:23:14.689Z,17.45
2018-06-08T07:24:16.917Z,15.13
2018-06-08T07:25:19.251Z,15.30
2018-06-08T07:26:21.494Z,19.05
2018-06-08T07:27:23.743Z,15.50
2018-06-08T07:28:25.983Z,16.25
2018-06-08T07:29:28.241Z,16.32
2018-06-08T07:30:30.483Z,17.92
2018-06-08T07:31:32.831Z,17.40
2018-06-08T07:32:35.042Z,17.07
2018-06-08T07:33:37.310Z,16.97
2018-06-08T07:34:39.559Z,16.60
2018-06-08T07:35:41.783Z,16.93
2018-06-08T07:36:44.027Z,18.75
2018-06-08T07:37:46.271Z,18.37
2018-06-08T07:38:48.562Z,19.45
2018-06-08T07:39:50.864Z,15.95
2018-06-08T07:40:53.078Z,16.30
2018-06-08T07:41:55.350Z,15.75
2018-06-08T07:42:57.619Z,17.00
2018-06-08T07:43:59.858Z,17.75
2018-06-08T07:45:02.153Z,16.65
2018-06-08T07:46:07.293Z,18.35
2018-06-08T07:47:09.574Z,19.10
2018-06-08T07:48:11.913Z,16.95
2018-06-08T07:49:14.333Z,16.97
2018-06-08T07:50:16.615Z,16.65
2018-06-08T07:51:18.906Z,15.65
2018-06-08T07:52:21.146Z,15.88
2018-06-08T07:53:23.416Z,15.38
2018-06-08T07:54:25.745Z,15.72
2018-06-08T07:55:27.967Z,16.90
2018-06-08T07:56:30.203Z,14.45
2018-06-08T07:57:32.458Z,17.82
2018-06-08T07:58:34.666Z,18.02
2018-06-08T07:59:36.910Z,18.07
2018-06-08T08:00:39.122Z,18.02
2018-06-08T08:01:41.357Z,18.45
2018-06-08T08:02:43.582Z,19.42
2018-06-08T08:03:45.806Z,20.62
2018-06-08T08:04:48.039Z,16.62
2018-06-08T08:05:50.278Z,14.68
2018-06-08T08:06:52.584Z,15.95
2018-06-08T08:07:54.829Z,21.12
2018-06-08T08:08:57.110Z,15.20
2018-06-08T08:09:59.318Z,16.87
2018-06-08T08:11:01.573Z,15.55
2018-06-08T08:12:03.827Z,16.37
2018-06-08T08:13:06.142Z,15.60
2018-06-08T08:14:08.386Z,17.15
2018-06-08T08:15:10.639Z,13.48
2018-06-08T08:16:12.879Z,16.73
2018-06-08T08:17:15.127Z,16.25
2018-06-08T08:18:17.385Z,16.10
2018-06-08T08:19:19.651Z,16.45
2018-06-08T08:20:21.894Z,17.73
2018-06-08T08:21:24.138Z,14.28
2018-06-08T08:22:26.468Z,15.88
2018-06-08T08:23:28.731Z,13.25
2018-06-08T08:24:31.017Z,16.57
2018-06-08T08:25:33.262Z,17.02
2018-06-08T08:26:35.674Z,14.60
2018-06-08T08:27:37.915Z,18.45
2018-06-08T08:28:40.212Z,15.35
2018-06-08T08:29:42.477Z,14.03
2018-06-08T08:30:44.722Z,17.82
2018-06-08T08:31:46.999Z,15.15
2018-06-08T08:32:49.256Z,14.75
2018-06-08T08:33:51.483Z,18.37
2018-06-08T08:34:53.696Z,13.93
2018-06-08T08:35:55.954Z,14.38
2018-06-08T08:36:58.184Z,17.85
2018-06-08T08:38:00.434Z,17.82
2018-06-08T08:39:05.239Z,13.90
2018-06-08T08:40:07.767Z,18.65
2018-06-08T08:41:10.056Z,16.90
2018-06-08T08:42:12.325Z,19.10
2018-06-08T08:43:14.611Z,19.52
2018-06-08T08:44:16.838Z,13.35
2018-06-08T08:45:19.147Z,17.25
2018-06-08T08:46:21.415Z,17.40
2018-06-08T08:47:23.719Z,18.12
2018-06-08T08:48:26.067Z,21.12
2018-06-08T08:49:28.305Z,16.62
2018-06-08T08:50:30.559Z,18.67
2018-06-08T08:51:32.872Z,18.62
2018-06-08T08:52:35.072Z,17.95
2018-06-08T08:53:37.344Z,19.48
2018-06-08T08:54:39.550Z,19.85
2018-06-08T08:55:41.814Z,18.82
2018-06-08T08:56:44.154Z,20.48
2018-06-08T08:57:46.423Z,18.15
2018-06-08T08:58:48.692Z,14.75
2018-06-08T08:59:50.977Z,21.60
2018-06-08T09:00:53.259Z,16.50
2018-06-08T09:01:55.565Z,16.07
2018-06-08T09:02:57.849Z,16.55
2018-06-08T09:04:00.095Z,14.80
2018-06-08T09:05:02.378Z,17.90
2018-06-08T09:06:04.814Z,18.27
2018-06-08T09:07:07.111Z,17.65
2018-06-08T09:08:09.445Z,17.52
2018-06-08T09:09:11.723Z,16.60
2018-06-08T09:10:13.988Z,20.02
2018-06-08T09:11:16.338Z,17.00
2018-06-08T09:12:18.633Z,16.35
2018-06-08T09:13:20.895Z,17.05
2018-06-08T09:14:23.111Z,16.95
2018-06-08T09:15:25.370Z,16.70
2018-06-08T09:16:27.576Z,21.07
2018-06-08T09:17:29.815Z,16.77
2018-06-08T09:18:32.028Z,19.10
2018-06-08T09:19:34.278Z,19.73
2018-06-08T09:20:36.502Z,16.37
2018-06-08T09:21:38.771Z,16.60
2018-06-08T09:22:40.996Z,20.60
2018-06-08T09:23:43.207Z,17.07
2018-06-08T09:24:45.476Z,17.65
2018-06-08T09:25:47.706Z,18.30
2018-06-08T09:26:49.954Z,16.27
2018-06-08T09:27:52.179Z,17.20
2018-06-08T09:28:54.389Z,18.62
2018-06-08T09:29:56.662Z,17.62
2018-06-08T09:30:58.910Z,16.75
2018-06-08T09:32:01.122Z,16.57
2018-06-08T09:33:03.410Z,14.00
2018-06-08T09:34:05.717Z,17.82
2018-06-08T09:35:07.977Z,22.75
2018-06-08T09:36:10.298Z,18.07
2018-06-08T09:37:12.561Z,16.27
2018-06-08T09:38:14.827Z,18.05
2018-06-08T09:39:17.074Z,17.82
2018-06-08T09:40:19.337Z,19.60
2018-06-08T09:41:21.549Z,17.62
2018-06-08T09:42:23.788Z,16.57
2018-06-08T09:43:26.051Z,20.75
2018-06-08T09:44:28.332Z,15.08
2018-06-08T09:45:30.598Z,16.17
2018-06-08T09:46:32.827Z,20.05
2018-06-08T09:47:35.064Z,17.35
2018-06-08T09:48:37.298Z,19.20
2018-06-08T09:49:39.617Z,18.67
2018-06-08T09:50:41.829Z,16.40
2018-06-08T09:51:44.057Z,18.00
2018-06-08T09:52:46.282Z,18.48
2018-06-08T09:53:48.478Z,15.10
2018-06-08T09:54:50.752Z,15.83
2018-06-08T09:55:52.927Z,20.30
2018-06-08T09:56:55.193Z,17.77
2018-06-08T09:57:57.551Z,17.98
2018-06-08T09:58:59.754Z,21.62
2018-06-08T10:00:02.037Z,15.25
2018-06-08T10:01:04.284Z,17.65
2018-06-08T10:02:06.507Z,18.10
2018-06-08T10:03:09.034Z,15.65
2018-06-08T10:04:11.267Z,20.45
2018-06-08T10:05:13.572Z,17.60
2018-06-08T10:06:15.828Z,16.90
2018-06-08T10:07:18.088Z,17.50
2018-06-08T10:08:20.302Z,16.62
2018-06-08T10:09:22.595Z,15.93
2018-06-08T10:10:24.856Z,17.92
2018-06-08T10:11:27.086Z,16.40
2018-06-08T10:12:29.331Z,22.70
2018-06-08T10:13:31.560Z,16.55
2018-06-08T10:14:33.768Z,15.25
2018-06-08T10:15:36.034Z,22.00
2018-06-08T10:16:38.288Z,17.05
2018-06-08T10:17:40.532Z,17.42
2018-06-08T10:18:42.766Z,20.20
2018-06-08T10:19:45.025Z,17.10
2018-06-08T10:20:47.288Z,17.30
2018-06-08T10:21:49.567Z,19.65
2018-06-08T10:22:51.788Z,16.50
2018-06-08T10:23:54.006Z,17.75
2018-06-08T10:24:56.290Z,18.62
2018-06-08T10:25:58.590Z,15.93
2018-06-08T10:27:00.838Z,17.95
2018-06-08T10:28:03.085Z,21.05
2018-06-08T10:29:05.346Z,18.82
2018-06-08T10:30:07.559Z,25.60
2018-06-08T10:31:09.813Z,23.10
2018-06-08T10:32:12.042Z,19.27
2018-06-08T10:33:14.314Z,20.00
2018-06-08T10:34:16.543Z,18.42
2018-06-08T10:35:18.758Z,22.55
2018-06-08T10:36:21.012Z,18.27
2018-06-08T10:37:23.268Z,18.42
2018-06-08T10:38:25.590Z,18.82
2018-06-08T10:39:27.789Z,14.90
2018-06-08T10:40:30.031Z,17.05
2018-06-08T10:41:32.266Z,16.25
2018-06-08T10:42:41.248Z,13.93
2018-06-08T10:43:43.565Z,18.15
2018-06-08T10:44:45.892Z,17.60
2018-06-08T10:45:48.153Z,17.40
2018-06-08T10:46:50.462Z,15.25
2018-06-08T10:47:53.221Z,15.15
2018-06-08T10:48:55.538Z,16.45
2018-06-08T10:49:57.807Z,17.15
2018-06-08T10:51:00.062Z,16.67
2018-06-08T10:52:02.298Z,16.73
2018-06-08T10:53:04.732Z,17.73
2018-06-08T10:54:06.955Z,14.87
2018-06-08T10:55:09.206Z,21.40
2018-06-08T10:56:11.430Z,18.73
2018-06-08T10:57:13.851Z,15.65
2018-06-08T10:58:16.094Z,16.93
2018-06-08T10:59:18.349Z,17.25
2018-06-08T11:00:20.622Z,17.23
2018-06-08T11:01:22.889Z,15.75
2018-06-08T11:02:25.195Z,14.55
2018-06-08T11:03:27.439Z,17.23
2018-06-08T11:04:29.663Z,18.92
2018-06-08T11:05:31.907Z,18.27
2018-06-08T11:06:34.162Z,21.37
2018-06-08T11:07:36.468Z,20.88
2018-06-08T11:08:38.686Z,15.00
2018-06-08T11:09:40.912Z,19.40
2018-06-08T11:10:43.154Z,17.62
2018-06-08T11:11:45.394Z,17.35
2018-06-08T11:12:47.634Z,17.35
2018-06-08T11:13:49.889Z,19.73
2018-06-08T11:14:52.171Z,15.08
2018-06-08T11:15:54.462Z,18.55
2018-06-08T11:16:56.757Z,15.75
2018-06-08T11:17:58.982Z,16.75
2018-06-08T11:19:01.206Z,20.23
2018-06-08T11:20:03.487Z,16.90
2018-06-08T11:21:05.703Z,17.52
2018-06-08T11:22:07.979Z,15.95
2018-06-08T11:23:10.296Z,14.73
2018-06-08T11:24:12.550Z,17.95
2018-06-08T11:25:14.798Z,15.83
2018-06-08T11:26:17.074Z,18.05
2018-06-08T11:27:19.290Z,18.98
2018-06-08T11:28:21.533Z,20.05
2018-06-08T11:29:23.757Z,15.43
2018-06-08T11:30:26.001Z,19.60
2018-06-08T11:31:28.267Z,16.45
2018-06-08T11:32:30.573Z,15.70
2018-06-08T11:33:32.809Z,18.42
2018-06-08T11:34:35.055Z,16.20
2018-06-08T11:35:37.370Z,14.63
2018-06-08T11:36:39.659Z,17.75
2018-06-08T11:37:42.020Z,14.60
2018-06-08T11:38:44.423Z,17.98
2018-06-08T11:39:46.721Z,20.35
2018-06-08T11:40:48.923Z,18.48
2018-06-08T11:41:51.166Z,18.45
2018-06-08T11:42:53.438Z,13.90
2018-06-08T11:43:55.666Z,17.17
2018-06-08T11:44:57.888Z,17.85
2018-06-08T11:46:00.146Z,14.33
2018-06-08T11:47:02.414Z,17.05
2018-06-08T11:48:04.678Z,16.27
2018-06-08T11:49:06.941Z,17.50
2018-06-08T11:50:09.190Z,15.30
2018-06-08T11:51:11.398Z,17.27
2018-06-08T11:52:13.617Z,15.00
2018-06-08T11:53:15.884Z,17.10
2018-06-08T11:54:18.091Z,20.50
2018-06-08T11:55:20.347Z,15.90
2018-06-08T11:56:22.617Z,19.57
2018-06-08T11:57:24.879Z,19.00
2018-06-08T11:58:27.170Z,16.25
2018-06-08T11:59:29.419Z,17.40
2018-06-08T12:00:31.660Z,18.17
2018-06-08T12:01:33.899Z,16.15
2018-06-08T12:02:36.158Z,18.35
2018-06-08T12:03:38.408Z,19.60
2018-06-08T12:04:40.623Z,18.02
2018-06-08T12:05:42.848Z,19.23
2018-06-08T12:06:45.147Z,16.93
2018-06-08T12:07:47.465Z,16.67
2018-06-08T12:08:49.704Z,18.10
2018-06-08T12:09:51.935Z,16.62
2018-06-08T12:10:54.276Z,18.27
2018-06-08T12:11:56.516Z,17.17
2018-06-08T12:12:58.844Z,15.72
2018-06-08T12:14:01.130Z,18.40
2018-06-08T12:15:03.431Z,16.50
2018-06-08T12:16:05.722Z,19.50
2018-06-08T12:17:07.997Z,18.62
2018-06-08T12:18:10.188Z,18.75
2018-06-08T12:19:12.725Z,20.30
2018-06-08T12:20:15.103Z,18.42
2018-06-08T12:21:17.767Z,15.70
2018-06-08T12:22:20.104Z,14.87
2018-06-08T12:23:22.347Z,14.63
2018-06-08T12:24:24.581Z,20.20
2018-06-08T12:25:26.891Z,18.12
2018-06-08T12:26:29.167Z,16.17
2018-06-08T12:27:31.450Z,17.73
2018-06-08T12:28:33.791Z,19.65
2018-06-08T12:29:36.056Z,19.73
2018-06-08T12:30:38.342Z,18.75
2018-06-08T12:31:40.582Z,15.48
2018-06-08T12:32:42.927Z,17.25
2018-06-08T12:33:45.267Z,16.85
2018-06-08T12:34:47.546Z,18.50
2018-06-08T12:35:49.818Z,19.42
2018-06-08T12:36:52.127Z,14.90
2018-06-08T12:37:54.471Z,17.05
2018-06-08T12:38:56.712Z,17.90
2018-06-08T12:39:58.968Z,17.57
2018-06-08T12:41:01.419Z,19.17
2018-06-08T12:42:03.764Z,17.62
2018-06-08T12:43:06.086Z,16.60
2018-06-08T12:44:08.576Z,17.70
2018-06-08T12:45:10.814Z,21.62
2018-06-08T12:46:13.294Z,17.25
2018-06-08T12:47:15.779Z,16.48
2018-06-08T12:48:18.113Z,19.62
2018-06-08T12:49:20.410Z,15.83
2018-06-08T12:50:22.680Z,18.67
2018-06-08T12:51:25.042Z,20.17
2018-06-08T12:52:27.300Z,16.70
2018-06-08T12:53:29.867Z,18.90
2018-06-08T12:54:32.242Z,17.52
2018-06-08T12:55:34.394Z,18.42
2018-06-08T12:56:36.665Z,20.05
2018-06-08T12:57:38.973Z,21.05
2018-06-08T12:58:41.251Z,19.92
2018-06-08T12:59:43.498Z,17.77
2018-06-08T13:00:45.784Z,18.30
2018-06-08T13:01:48.057Z,17.20
2018-06-08T13:02:50.319Z,16.60
2018-06-08T13:03:52.593Z,19.48
2018-06-08T13:04:54.866Z,17.10
2018-06-08T13:05:57.206Z,16.60
2018-06-08T13:06:59.483Z,18.35
2018-06-08T13:08:01.770Z,16.85
2018-06-08T13:09:06.271Z,17.82
2018-06-08T13:10:08.588Z,15.48
2018-06-08T13:11:10.904Z,22.00
2018-06-08T13:12:13.195Z,18.23
2018-06-08T13:13:15.524Z,17.00
2018-06-08T13:14:17.836Z,18.20
2018-06-08T13:15:20.138Z,18.12
2018-06-08T13:16:22.697Z,20.72
2018-06-08T13:17:24.988Z,18.35
2018-06-08T13:18:27.410Z,22.82
2018-06-08T13:19:29.727Z,19.07
2018-06-08T13:20:32.020Z,22.52
2018-06-08T13:21:34.590Z,20.15
2018-06-08T13:22:36.899Z,20.12
2018-06-08T13:23:39.176Z,20.30
2018-06-08T13:24:41.506Z,18.00
2018-06-08T13:25:43.864Z,24.80
2018-06-08T13:26:46.197Z,16.35
2018-06-08T13:27:48.446Z,20.35